sensor_id;sensor_type;location;lat;lon;timestamp;P1;durP1;ratioP1;P2;durP2;ratioP2
8572;SDS011;4324;42.012;24.872;2023-11-21T00:00:38;2.00;;;1.30;;
8572;SDS011;4324;42.012;24.872;2023-11-21T00:03:06;1.73;;;1.30;;
8572;SDS011;4324;42.012;24.872;2023-11-21T00:05:33;1.63;;;1.20;;
8572;SDS011;4324;42.012;24.872;2023-11-21T00:08:01;1.50;;;1.40;;
8572;SDS011;4324;42.012;24.872;2023-11-21T00:10:27;1.70;;;1.20;;
8572;SDS011;4324;42.012;24.872;2023-11-21T00:12:54;1.30;;;1.10;;
8572;SDS011;4324;42.012;24.872;2023-11-21T00:15:23;1.30;;;1.20;;
8572;SDS011;4324;42.012;24.872;2023-11-21T00:17:51;1.40;;;1.30;;
8572;SDS011;4324;42.012;24.872;2023-11-21T00:20:18;2.53;;;1.63;;
8572;SDS011;4324;42.012;24.872;2023-11-21T00:22:46;1.80;;;1.20;;
8572;SDS011;4324;42.012;24.872;2023-11-21T00:25:13;2.70;;;1.40;;
8572;SDS011;4324;42.012;24.872;2023-11-21T00:27:42;1.20;;;1.10;;
8572;SDS011;4324;42.012;24.872;2023-11-21T00:30:10;2.13;;;1.40;;
8572;SDS011;4324;42.012;24.872;2023-11-21T00:32:39;1.20;;;1.00;;
8572;SDS011;4324;42.012;24.872;2023-11-21T00:35:06;1.93;;;1.10;;
8572;SDS011;4324;42.012;24.872;2023-11-21T00:37:33;3.57;;;1.43;;
8572;SDS011;4324;42.012;24.872;2023-11-21T00:40:00;1.33;;;1.20;;
8572;SDS011;4324;42.012;24.872;2023-11-21T00:42:30;1.33;;;1.23;;
8572;SDS011;4324;42.012;24.872;2023-11-21T00:44:57;2.33;;;1.00;;
8572;SDS011;4324;42.012;24.872;2023-11-21T00:47:24;1.60;;;1.27;;
8572;SDS011;4324;42.012;24.872;2023-11-21T00:49:52;1.30;;;1.13;;
8572;SDS011;4324;42.012;24.872;2023-11-21T00:52:19;1.50;;;1.40;;
8572;SDS011;4324;42.012;24.872;2023-11-21T00:54:46;3.00;;;1.40;;
8572;SDS011;4324;42.012;24.872;2023-11-21T00:57:13;1.20;;;1.10;;
8572;SDS011;4324;42.012;24.872;2023-11-21T00:59:40;1.90;;;1.30;;
8572;SDS011;4324;42.012;24.872;2023-11-21T01:02:07;1.20;;;0.90;;
8572;SDS011;4324;42.012;24.872;2023-11-21T01:04:36;1.57;;;1.17;;
8572;SDS011;4324;42.012;24.872;2023-11-21T01:07:04;1.50;;;1.20;;
8572;SDS011;4324;42.012;24.872;2023-11-21T01:09:32;2.00;;;1.10;;
8572;SDS011;4324;42.012;24.872;2023-11-21T01:11:59;0.90;;;0.90;;
8572;SDS011;4324;42.012;24.872;2023-11-21T01:14:27;1.23;;;1.03;;
8572;SDS011;4324;42.012;24.872;2023-11-21T01:16:54;1.13;;;1.03;;
8572;SDS011;4324;42.012;24.872;2023-11-21T01:19:21;1.40;;;1.00;;
8572;SDS011;4324;42.012;24.872;2023-11-21T01:21:48;2.33;;;1.23;;
8572;SDS011;4324;42.012;24.872;2023-11-21T01:24:18;1.33;;;1.00;;
8572;SDS011;4324;42.012;24.872;2023-11-21T01:26:45;1.73;;;1.20;;
8572;SDS011;4324;42.012;24.872;2023-11-21T01:29:12;1.37;;;1.20;;
8572;SDS011;4324;42.012;24.872;2023-11-21T01:31:40;1.30;;;0.97;;
8572;SDS011;4324;42.012;24.872;2023-11-21T01:34:07;1.30;;;1.10;;
8572;SDS011;4324;42.012;24.872;2023-11-21T01:36:34;1.70;;;1.10;;
8572;SDS011;4324;42.012;24.872;2023-11-21T01:39:01;2.97;;;1.03;;
8572;SDS011;4324;42.012;24.872;2023-11-21T01:41:35;1.00;;;0.90;;
8572;SDS011;4324;42.012;24.872;2023-11-21T01:44:02;1.10;;;0.93;;
8572;SDS011;4324;42.012;24.872;2023-11-21T01:46:32;1.00;;;0.90;;
8572;SDS011;4324;42.012;24.872;2023-11-21T01:49:00;1.27;;;1.17;;
8572;SDS011;4324;42.012;24.872;2023-11-21T01:51:27;1.10;;;0.80;;
8572;SDS011;4324;42.012;24.872;2023-11-21T01:53:54;1.10;;;1.00;;
8572;SDS011;4324;42.012;24.872;2023-11-21T01:56:21;2.37;;;1.07;;
8572;SDS011;4324;42.012;24.872;2023-11-21T01:58:49;1.23;;;1.13;;
8572;SDS011;4324;42.012;24.872;2023-11-21T02:01:16;1.20;;;1.00;;
8572;SDS011;4324;42.012;24.872;2023-11-21T02:03:44;2.23;;;1.20;;
8572;SDS011;4324;42.012;24.872;2023-11-21T02:06:11;2.13;;;1.07;;
8572;SDS011;4324;42.012;24.872;2023-11-21T02:08:38;1.63;;;1.30;;
8572;SDS011;4324;42.012;24.872;2023-11-21T02:11:07;2.07;;;1.60;;
8572;SDS011;4324;42.012;24.872;2023-11-21T02:13:38;1.20;;;1.00;;
8572;SDS011;4324;42.012;24.872;2023-11-21T02:16:09;1.10;;;1.00;;
8572;SDS011;4324;42.012;24.872;2023-11-21T02:18:37;1.30;;;0.83;;
8572;SDS011;4324;42.012;24.872;2023-11-21T02:21:08;0.90;;;0.90;;
8572;SDS011;4324;42.012;24.872;2023-11-21T02:23:37;1.20;;;1.10;;
8572;SDS011;4324;42.012;24.872;2023-11-21T02:26:07;1.20;;;1.10;;
8572;SDS011;4324;42.012;24.872;2023-11-21T02:28:35;0.80;;;0.80;;
8572;SDS011;4324;42.012;24.872;2023-11-21T02:31:04;1.43;;;1.00;;
8572;SDS011;4324;42.012;24.872;2023-11-21T02:33:33;1.20;;;1.10;;
8572;SDS011;4324;42.012;24.872;2023-11-21T02:36:00;1.53;;;0.93;;
8572;SDS011;4324;42.012;24.872;2023-11-21T02:38:27;0.83;;;0.83;;
8572;SDS011;4324;42.012;24.872;2023-11-21T02:40:57;2.10;;;1.17;;
8572;SDS011;4324;42.012;24.872;2023-11-21T02:43:24;1.50;;;1.17;;
8572;SDS011;4324;42.012;24.872;2023-11-21T02:45:51;6.23;;;1.50;;
8572;SDS011;4324;42.012;24.872;2023-11-21T02:48:18;2.33;;;1.03;;
8572;SDS011;4324;42.012;24.872;2023-11-21T02:50:45;1.17;;;1.00;;
8572;SDS011;4324;42.012;24.872;2023-11-21T02:53:12;2.70;;;1.00;;
8572;SDS011;4324;42.012;24.872;2023-11-21T02:55:40;2.23;;;0.80;;
8572;SDS011;4324;42.012;24.872;2023-11-21T02:58:08;1.10;;;1.00;;
8572;SDS011;4324;42.012;24.872;2023-11-21T03:00:35;1.53;;;0.97;;
8572;SDS011;4324;42.012;24.872;2023-11-21T03:03:02;2.03;;;1.00;;
8572;SDS011;4324;42.012;24.872;2023-11-21T03:05:29;1.17;;;0.90;;
8572;SDS011;4324;42.012;24.872;2023-11-21T03:07:56;2.47;;;1.40;;
8572;SDS011;4324;42.012;24.872;2023-11-21T03:10:23;1.50;;;1.30;;
8572;SDS011;4324;42.012;24.872;2023-11-21T03:12:50;1.97;;;1.10;;
8572;SDS011;4324;42.012;24.872;2023-11-21T03:15:19;2.17;;;1.00;;
8572;SDS011;4324;42.012;24.872;2023-11-21T03:17:46;1.20;;;1.10;;
8572;SDS011;4324;42.012;24.872;2023-11-21T03:20:14;0.80;;;0.80;;
8572;SDS011;4324;42.012;24.872;2023-11-21T03:22:41;1.20;;;0.90;;
8572;SDS011;4324;42.012;24.872;2023-11-21T03:25:08;1.27;;;0.90;;
8572;SDS011;4324;42.012;24.872;2023-11-21T03:27:36;1.13;;;1.03;;
8572;SDS011;4324;42.012;24.872;2023-11-21T03:30:07;1.33;;;1.13;;
8572;SDS011;4324;42.012;24.872;2023-11-21T03:32:36;1.40;;;0.90;;
8572;SDS011;4324;42.012;24.872;2023-11-21T03:35:04;1.67;;;1.10;;
8572;SDS011;4324;42.012;24.872;2023-11-21T03:37:31;1.40;;;1.30;;
8572;SDS011;4324;42.012;24.872;2023-11-21T03:39:58;1.10;;;1.00;;
8572;SDS011;4324;42.012;24.872;2023-11-21T03:42:25;1.10;;;1.00;;
8572;SDS011;4324;42.012;24.872;2023-11-21T03:44:52;2.07;;;1.00;;
8572;SDS011;4324;42.012;24.872;2023-11-21T03:47:19;1.77;;;1.30;;
8572;SDS011;4324;42.012;24.872;2023-11-21T03:49:47;1.30;;;1.20;;
8572;SDS011;4324;42.012;24.872;2023-11-21T03:52:14;1.33;;;1.20;;
8572;SDS011;4324;42.012;24.872;2023-11-21T03:54:41;3.30;;;1.43;;
8572;SDS011;4324;42.012;24.872;2023-11-21T03:57:08;1.80;;;1.40;;
8572;SDS011;4324;42.012;24.872;2023-11-21T03:59:35;1.20;;;1.10;;
8572;SDS011;4324;42.012;24.872;2023-11-21T04:02:03;1.03;;;0.93;;
8572;SDS011;4324;42.012;24.872;2023-11-21T04:04:30;1.50;;;1.13;;
8572;SDS011;4324;42.012;24.872;2023-11-21T04:06:58;1.20;;;1.10;;
8572;SDS011;4324;42.012;24.872;2023-11-21T04:09:25;1.87;;;1.10;;
8572;SDS011;4324;42.012;24.872;2023-11-21T04:11:52;1.27;;;1.07;;
8572;SDS011;4324;42.012;24.872;2023-11-21T04:14:20;1.70;;;1.40;;
8572;SDS011;4324;42.012;24.872;2023-11-21T04:16:48;1.43;;;1.10;;
8572;SDS011;4324;42.012;24.872;2023-11-21T04:19:15;1.33;;;0.93;;
8572;SDS011;4324;42.012;24.872;2023-11-21T04:21:42;1.40;;;1.30;;
8572;SDS011;4324;42.012;24.872;2023-11-21T04:24:11;1.40;;;1.20;;
8572;SDS011;4324;42.012;24.872;2023-11-21T04:26:38;1.80;;;1.50;;
8572;SDS011;4324;42.012;24.872;2023-11-21T04:29:05;1.70;;;1.03;;
8572;SDS011;4324;42.012;24.872;2023-11-21T04:31:32;1.30;;;1.10;;
8572;SDS011;4324;42.012;24.872;2023-11-21T04:33:59;1.80;;;1.40;;
8572;SDS011;4324;42.012;24.872;2023-11-21T04:36:26;1.17;;;1.03;;
8572;SDS011;4324;42.012;24.872;2023-11-21T04:38:55;3.53;;;3.00;;
8572;SDS011;4324;42.012;24.872;2023-11-21T04:41:24;3.90;;;2.00;;
8572;SDS011;4324;42.012;24.872;2023-11-21T04:43:51;1.50;;;1.23;;
8572;SDS011;4324;42.012;24.872;2023-11-21T04:46:18;6.50;;;2.10;;
8572;SDS011;4324;42.012;24.872;2023-11-21T04:48:45;3.70;;;1.80;;
8572;SDS011;4324;42.012;24.872;2023-11-21T04:51:12;6.20;;;1.60;;
8572;SDS011;4324;42.012;24.872;2023-11-21T04:53:39;2.17;;;1.90;;
8572;SDS011;4324;42.012;24.872;2023-11-21T04:56:07;4.63;;;2.00;;
8572;SDS011;4324;42.012;24.872;2023-11-21T04:58:36;3.87;;;2.47;;
8572;SDS011;4324;42.012;24.872;2023-11-21T05:01:03;3.17;;;2.40;;
8572;SDS011;4324;42.012;24.872;2023-11-21T05:03:30;4.87;;;3.10;;
8572;SDS011;4324;42.012;24.872;2023-11-21T05:05:57;4.30;;;2.80;;
8572;SDS011;4324;42.012;24.872;2023-11-21T05:08:25;4.73;;;3.83;;
8572;SDS011;4324;42.012;24.872;2023-11-21T05:10:53;2.03;;;1.50;;
8572;SDS011;4324;42.012;24.872;2023-11-21T05:13:20;5.17;;;2.40;;
8572;SDS011;4324;42.012;24.872;2023-11-21T05:15:53;7.87;;;3.50;;
8572;SDS011;4324;42.012;24.872;2023-11-21T05:18:21;3.20;;;1.77;;
8572;SDS011;4324;42.012;24.872;2023-11-21T05:20:48;1.27;;;1.10;;
8572;SDS011;4324;42.012;24.872;2023-11-21T05:23:15;4.20;;;2.93;;
8572;SDS011;4324;42.012;24.872;2023-11-21T05:25:44;2.80;;;2.20;;
8572;SDS011;4324;42.012;24.872;2023-11-21T05:28:11;3.57;;;2.20;;
8572;SDS011;4324;42.012;24.872;2023-11-21T05:30:39;3.47;;;3.00;;
8572;SDS011;4324;42.012;24.872;2023-11-21T05:33:07;6.27;;;5.67;;
8572;SDS011;4324;42.012;24.872;2023-11-21T05:35:35;2.20;;;2.00;;
8572;SDS011;4324;42.012;24.872;2023-11-21T05:38:02;6.33;;;4.37;;
8572;SDS011;4324;42.012;24.872;2023-11-21T05:40:30;8.77;;;4.77;;
8572;SDS011;4324;42.012;24.872;2023-11-21T05:42:58;2.47;;;2.20;;
8572;SDS011;4324;42.012;24.872;2023-11-21T05:45:25;2.53;;;1.50;;
8572;SDS011;4324;42.012;24.872;2023-11-21T05:47:54;3.70;;;2.07;;
8572;SDS011;4324;42.012;24.872;2023-11-21T05:50:22;3.40;;;2.00;;
8572;SDS011;4324;42.012;24.872;2023-11-21T05:52:49;8.17;;;3.87;;
8572;SDS011;4324;42.012;24.872;2023-11-21T05:55:16;1.77;;;1.50;;
8572;SDS011;4324;42.012;24.872;2023-11-21T05:57:46;1.93;;;1.70;;
8572;SDS011;4324;42.012;24.872;2023-11-21T06:00:13;1.67;;;1.50;;
8572;SDS011;4324;42.012;24.872;2023-11-21T06:02:47;2.80;;;1.83;;
8572;SDS011;4324;42.012;24.872;2023-11-21T06:05:16;5.17;;;3.10;;
8572;SDS011;4324;42.012;24.872;2023-11-21T06:07:46;2.47;;;2.00;;
8572;SDS011;4324;42.012;24.872;2023-11-21T06:10:13;5.33;;;2.70;;
8572;SDS011;4324;42.012;24.872;2023-11-21T06:12:40;2.20;;;1.80;;
8572;SDS011;4324;42.012;24.872;2023-11-21T06:15:08;2.23;;;1.60;;
8572;SDS011;4324;42.012;24.872;2023-11-21T06:17:38;3.67;;;1.60;;
8572;SDS011;4324;42.012;24.872;2023-11-21T06:20:07;2.40;;;1.80;;
8572;SDS011;4324;42.012;24.872;2023-11-21T06:22:36;1.97;;;1.70;;
8572;SDS011;4324;42.012;24.872;2023-11-21T06:25:05;2.33;;;1.60;;
8572;SDS011;4324;42.012;24.872;2023-11-21T06:27:34;1.87;;;1.47;;
8572;SDS011;4324;42.012;24.872;2023-11-21T06:30:04;2.00;;;1.10;;
8572;SDS011;4324;42.012;24.872;2023-11-21T06:32:32;2.33;;;1.33;;
8572;SDS011;4324;42.012;24.872;2023-11-21T06:34:59;1.70;;;1.40;;
8572;SDS011;4324;42.012;24.872;2023-11-21T06:37:27;2.80;;;1.83;;
8572;SDS011;4324;42.012;24.872;2023-11-21T06:39:54;1.67;;;1.37;;
8572;SDS011;4324;42.012;24.872;2023-11-21T06:42:23;1.87;;;1.40;;
8572;SDS011;4324;42.012;24.872;2023-11-21T06:44:50;1.50;;;1.30;;
8572;SDS011;4324;42.012;24.872;2023-11-21T06:47:19;3.30;;;1.77;;
8572;SDS011;4324;42.012;24.872;2023-11-21T06:49:46;2.70;;;1.60;;
8572;SDS011;4324;42.012;24.872;2023-11-21T06:52:14;2.63;;;1.40;;
8572;SDS011;4324;42.012;24.872;2023-11-21T06:54:41;1.93;;;1.37;;
8572;SDS011;4324;42.012;24.872;2023-11-21T06:57:08;3.00;;;1.70;;
8572;SDS011;4324;42.012;24.872;2023-11-21T06:59:37;1.33;;;1.23;;
8572;SDS011;4324;42.012;24.872;2023-11-21T07:02:03;1.87;;;1.70;;
8572;SDS011;4324;42.012;24.872;2023-11-21T07:04:31;1.43;;;1.00;;
8572;SDS011;4324;42.012;24.872;2023-11-21T07:06:58;1.93;;;1.63;;
8572;SDS011;4324;42.012;24.872;2023-11-21T07:09:26;1.60;;;1.40;;
8572;SDS011;4324;42.012;24.872;2023-11-21T07:11:53;1.50;;;1.40;;
8572;SDS011;4324;42.012;24.872;2023-11-21T07:14:20;3.77;;;3.07;;
8572;SDS011;4324;42.012;24.872;2023-11-21T07:16:48;4.13;;;2.70;;
8572;SDS011;4324;42.012;24.872;2023-11-21T07:19:17;3.50;;;2.23;;
8572;SDS011;4324;42.012;24.872;2023-11-21T07:21:45;2.87;;;1.63;;
8572;SDS011;4324;42.012;24.872;2023-11-21T07:24:16;3.63;;;1.77;;
8572;SDS011;4324;42.012;24.872;2023-11-21T07:26:45;1.87;;;1.70;;
8572;SDS011;4324;42.012;24.872;2023-11-21T07:29:13;2.27;;;2.07;;
8572;SDS011;4324;42.012;24.872;2023-11-21T07:31:40;2.00;;;1.90;;
8572;SDS011;4324;42.012;24.872;2023-11-21T07:34:08;10.70;;;8.83;;
8572;SDS011;4324;42.012;24.872;2023-11-21T07:36:37;13.00;;;9.17;;
8572;SDS011;4324;42.012;24.872;2023-11-21T07:39:04;17.33;;;11.20;;
8572;SDS011;4324;42.012;24.872;2023-11-21T07:41:32;17.87;;;10.43;;
8572;SDS011;4324;42.012;24.872;2023-11-21T07:43:59;16.67;;;10.80;;
8572;SDS011;4324;42.012;24.872;2023-11-21T07:46:28;14.60;;;9.43;;
8572;SDS011;4324;42.012;24.872;2023-11-21T07:48:55;18.20;;;10.37;;
8572;SDS011;4324;42.012;24.872;2023-11-21T07:51:24;15.53;;;9.37;;
8572;SDS011;4324;42.012;24.872;2023-11-21T07:53:51;13.57;;;10.20;;
8572;SDS011;4324;42.012;24.872;2023-11-21T07:56:18;16.13;;;11.50;;
8572;SDS011;4324;42.012;24.872;2023-11-21T07:58:45;15.60;;;10.90;;
8572;SDS011;4324;42.012;24.872;2023-11-21T08:01:12;14.70;;;10.87;;
8572;SDS011;4324;42.012;24.872;2023-11-21T08:03:39;17.33;;;11.00;;
8572;SDS011;4324;42.012;24.872;2023-11-21T08:06:07;15.83;;;9.93;;
8572;SDS011;4324;42.012;24.872;2023-11-21T08:08:35;18.73;;;10.50;;
8572;SDS011;4324;42.012;24.872;2023-11-21T08:11:03;29.27;;;19.80;;
8572;SDS011;4324;42.012;24.872;2023-11-21T08:13:30;18.87;;;10.37;;
8572;SDS011;4324;42.012;24.872;2023-11-21T08:15:57;14.63;;;9.50;;
8572;SDS011;4324;42.012;24.872;2023-11-21T08:18:28;16.90;;;10.40;;
8572;SDS011;4324;42.012;24.872;2023-11-21T08:20:55;13.50;;;8.93;;
8572;SDS011;4324;42.012;24.872;2023-11-21T08:23:22;11.87;;;7.73;;
8572;SDS011;4324;42.012;24.872;2023-11-21T08:25:52;10.17;;;7.77;;
8572;SDS011;4324;42.012;24.872;2023-11-21T08:28:19;9.83;;;7.53;;
8572;SDS011;4324;42.012;24.872;2023-11-21T08:30:47;11.97;;;8.87;;
8572;SDS011;4324;42.012;24.872;2023-11-21T08:33:14;13.60;;;8.53;;
8572;SDS011;4324;42.012;24.872;2023-11-21T08:35:41;12.37;;;7.57;;
8572;SDS011;4324;42.012;24.872;2023-11-21T08:38:08;11.87;;;8.20;;
8572;SDS011;4324;42.012;24.872;2023-11-21T08:40:36;10.87;;;7.60;;
8572;SDS011;4324;42.012;24.872;2023-11-21T08:43:05;10.43;;;7.27;;
8572;SDS011;4324;42.012;24.872;2023-11-21T08:45:33;12.93;;;9.50;;
8572;SDS011;4324;42.012;24.872;2023-11-21T08:48:00;13.77;;;10.97;;
8572;SDS011;4324;42.012;24.872;2023-11-21T08:50:27;11.23;;;7.47;;
8572;SDS011;4324;42.012;24.872;2023-11-21T08:52:54;11.93;;;7.57;;
8572;SDS011;4324;42.012;24.872;2023-11-21T08:55:21;10.57;;;7.47;;
8572;SDS011;4324;42.012;24.872;2023-11-21T08:57:48;12.37;;;7.87;;
8572;SDS011;4324;42.012;24.872;2023-11-21T09:00:17;14.83;;;8.60;;
8572;SDS011;4324;42.012;24.872;2023-11-21T09:02:44;12.77;;;8.00;;
8572;SDS011;4324;42.012;24.872;2023-11-21T09:05:13;12.90;;;7.70;;
8572;SDS011;4324;42.012;24.872;2023-11-21T09:07:41;11.27;;;7.73;;
8572;SDS011;4324;42.012;24.872;2023-11-21T09:10:11;13.27;;;8.53;;
8572;SDS011;4324;42.012;24.872;2023-11-21T09:12:40;16.30;;;8.80;;
8572;SDS011;4324;42.012;24.872;2023-11-21T09:15:08;13.10;;;9.03;;
8572;SDS011;4324;42.012;24.872;2023-11-21T09:17:38;18.60;;;8.70;;
8572;SDS011;4324;42.012;24.872;2023-11-21T09:20:06;12.87;;;9.47;;
8572;SDS011;4324;42.012;24.872;2023-11-21T09:22:35;14.93;;;8.63;;
8572;SDS011;4324;42.012;24.872;2023-11-21T09:25:02;13.43;;;9.33;;
8572;SDS011;4324;42.012;24.872;2023-11-21T09:27:31;11.93;;;9.93;;
8572;SDS011;4324;42.012;24.872;2023-11-21T09:29:58;13.73;;;9.17;;
8572;SDS011;4324;42.012;24.872;2023-11-21T09:32:25;15.33;;;9.57;;
8572;SDS011;4324;42.012;24.872;2023-11-21T09:34:53;11.83;;;9.33;;
8572;SDS011;4324;42.012;24.872;2023-11-21T09:37:23;22.83;;;15.33;;
8572;SDS011;4324;42.012;24.872;2023-11-21T09:39:52;14.97;;;9.47;;
8572;SDS011;4324;42.012;24.872;2023-11-21T09:42:21;14.00;;;9.07;;
8572;SDS011;4324;42.012;24.872;2023-11-21T09:44:54;11.53;;;9.33;;
8572;SDS011;4324;42.012;24.872;2023-11-21T09:47:30;13.43;;;9.50;;
8572;SDS011;4324;42.012;24.872;2023-11-21T09:49:59;13.97;;;12.33;;
8572;SDS011;4324;42.012;24.872;2023-11-21T09:52:28;16.90;;;12.07;;
8572;SDS011;4324;42.012;24.872;2023-11-21T09:54:55;16.40;;;11.17;;
8572;SDS011;4324;42.012;24.872;2023-11-21T09:57:23;16.10;;;11.13;;
8572;SDS011;4324;42.012;24.872;2023-11-21T09:59:52;13.87;;;10.40;;
8572;SDS011;4324;42.012;24.872;2023-11-21T10:02:22;16.53;;;10.87;;
8572;SDS011;4324;42.012;24.872;2023-11-21T10:04:53;12.77;;;8.50;;
8572;SDS011;4324;42.012;24.872;2023-11-21T10:07:23;22.10;;;11.37;;
8572;SDS011;4324;42.012;24.872;2023-11-21T10:09:50;19.20;;;15.30;;
8572;SDS011;4324;42.012;24.872;2023-11-21T10:12:19;16.70;;;9.40;;
8572;SDS011;4324;42.012;24.872;2023-11-21T10:14:47;13.13;;;8.17;;
8572;SDS011;4324;42.012;24.872;2023-11-21T10:17:17;10.53;;;7.30;;
8572;SDS011;4324;42.012;24.872;2023-11-21T10:19:46;15.33;;;7.80;;
8572;SDS011;4324;42.012;24.872;2023-11-21T10:22:14;14.40;;;8.37;;
8572;SDS011;4324;42.012;24.872;2023-11-21T10:24:44;18.33;;;9.60;;
8572;SDS011;4324;42.012;24.872;2023-11-21T10:27:10;17.37;;;8.93;;
8572;SDS011;4324;42.012;24.872;2023-11-21T10:29:38;18.33;;;10.47;;
8572;SDS011;4324;42.012;24.872;2023-11-21T10:32:07;18.17;;;9.70;;
8572;SDS011;4324;42.012;24.872;2023-11-21T10:34:35;12.47;;;9.00;;
8572;SDS011;4324;42.012;24.872;2023-11-21T10:37:10;14.63;;;7.57;;
8572;SDS011;4324;42.012;24.872;2023-11-21T10:39:39;13.00;;;9.23;;
8572;SDS011;4324;42.012;24.872;2023-11-21T10:42:09;15.40;;;7.57;;
8572;SDS011;4324;42.012;24.872;2023-11-21T10:44:36;14.90;;;7.93;;
8572;SDS011;4324;42.012;24.872;2023-11-21T10:47:03;10.47;;;8.60;;
8572;SDS011;4324;42.012;24.872;2023-11-21T10:49:30;15.07;;;11.73;;
8572;SDS011;4324;42.012;24.872;2023-11-21T10:51:57;14.37;;;8.73;;
8572;SDS011;4324;42.012;24.872;2023-11-21T10:54:24;14.13;;;10.53;;
8572;SDS011;4324;42.012;24.872;2023-11-21T10:56:53;12.77;;;10.87;;
8572;SDS011;4324;42.012;24.872;2023-11-21T10:59:25;12.43;;;10.40;;
8572;SDS011;4324;42.012;24.872;2023-11-21T11:01:57;14.77;;;12.17;;
8572;SDS011;4324;42.012;24.872;2023-11-21T11:04:27;5.20;;;4.37;;
8572;SDS011;4324;42.012;24.872;2023-11-21T11:06:55;6.47;;;4.20;;
8572;SDS011;4324;42.012;24.872;2023-11-21T11:09:24;4.90;;;4.40;;
8572;SDS011;4324;42.012;24.872;2023-11-21T11:11:51;6.83;;;5.13;;
8572;SDS011;4324;42.012;24.872;2023-11-21T11:14:19;7.63;;;6.30;;
8572;SDS011;4324;42.012;24.872;2023-11-21T11:16:53;12.10;;;8.83;;
8572;SDS011;4324;42.012;24.872;2023-11-21T11:19:21;7.23;;;5.77;;
8572;SDS011;4324;42.012;24.872;2023-11-21T11:21:50;6.47;;;5.77;;
8572;SDS011;4324;42.012;24.872;2023-11-21T11:24:29;10.17;;;7.47;;
8572;SDS011;4324;42.012;24.872;2023-11-21T11:27:09;8.47;;;5.93;;
8572;SDS011;4324;42.012;24.872;2023-11-21T11:29:48;18.83;;;17.10;;
8572;SDS011;4324;42.012;24.872;2023-11-21T11:32:27;8.27;;;6.53;;
8572;SDS011;4324;42.012;24.872;2023-11-21T11:35:07;10.97;;;8.50;;
8572;SDS011;4324;42.012;24.872;2023-11-21T11:37:42;20.03;;;17.13;;
8572;SDS011;4324;42.012;24.872;2023-11-21T11:40:10;53.83;;;41.33;;
8572;SDS011;4324;42.012;24.872;2023-11-21T11:42:38;13.53;;;11.23;;
8572;SDS011;4324;42.012;24.872;2023-11-21T11:45:17;21.20;;;17.60;;
8572;SDS011;4324;42.012;24.872;2023-11-21T11:47:45;7.40;;;6.63;;
8572;SDS011;4324;42.012;24.872;2023-11-21T11:50:14;17.40;;;13.90;;
8572;SDS011;4324;42.012;24.872;2023-11-21T11:52:43;11.37;;;10.17;;
8572;SDS011;4324;42.012;24.872;2023-11-21T11:55:18;13.10;;;10.40;;
8572;SDS011;4324;42.012;24.872;2023-11-21T11:57:47;8.60;;;7.57;;
8572;SDS011;4324;42.012;24.872;2023-11-21T12:00:16;9.57;;;7.90;;
8572;SDS011;4324;42.012;24.872;2023-11-21T12:02:47;8.17;;;7.37;;
8572;SDS011;4324;42.012;24.872;2023-11-21T12:05:16;12.10;;;10.23;;
8572;SDS011;4324;42.012;24.872;2023-11-21T12:07:46;10.43;;;8.43;;
8572;SDS011;4324;42.012;24.872;2023-11-21T12:10:14;8.83;;;6.80;;
8572;SDS011;4324;42.012;24.872;2023-11-21T12:12:43;8.53;;;7.20;;
8572;SDS011;4324;42.012;24.872;2023-11-21T12:15:11;11.10;;;7.40;;
8572;SDS011;4324;42.012;24.872;2023-11-21T12:17:39;11.70;;;7.90;;
8572;SDS011;4324;42.012;24.872;2023-11-21T12:20:10;12.03;;;8.00;;
8572;SDS011;4324;42.012;24.872;2023-11-21T12:22:43;9.43;;;7.10;;
8572;SDS011;4324;42.012;24.872;2023-11-21T12:25:13;10.17;;;6.57;;
8572;SDS011;4324;42.012;24.872;2023-11-21T12:27:42;8.93;;;6.47;;
8572;SDS011;4324;42.012;24.872;2023-11-21T12:30:11;11.17;;;6.90;;
8572;SDS011;4324;42.012;24.872;2023-11-21T12:32:41;7.93;;;6.80;;
8572;SDS011;4324;42.012;24.872;2023-11-21T12:35:10;8.33;;;7.40;;
8572;SDS011;4324;42.012;24.872;2023-11-21T12:37:38;14.17;;;9.40;;
8572;SDS011;4324;42.012;24.872;2023-11-21T12:40:06;10.13;;;8.23;;
8572;SDS011;4324;42.012;24.872;2023-11-21T12:42:37;15.87;;;9.30;;
8572;SDS011;4324;42.012;24.872;2023-11-21T12:45:09;12.00;;;8.90;;
8572;SDS011;4324;42.012;24.872;2023-11-21T12:47:45;7.27;;;6.03;;
8572;SDS011;4324;42.012;24.872;2023-11-21T12:50:15;7.70;;;6.53;;
8572;SDS011;4324;42.012;24.872;2023-11-21T12:52:49;9.37;;;7.60;;
8572;SDS011;4324;42.012;24.872;2023-11-21T12:55:19;9.67;;;8.33;;
8572;SDS011;4324;42.012;24.872;2023-11-21T12:57:48;11.80;;;9.90;;
8572;SDS011;4324;42.012;24.872;2023-11-21T13:00:17;12.20;;;10.50;;
8572;SDS011;4324;42.012;24.872;2023-11-21T13:02:53;14.57;;;9.70;;
8572;SDS011;4324;42.012;24.872;2023-11-21T13:05:30;11.80;;;8.00;;
8572;SDS011;4324;42.012;24.872;2023-11-21T13:07:59;13.10;;;8.83;;
8572;SDS011;4324;42.012;24.872;2023-11-21T13:10:29;13.63;;;11.07;;
8572;SDS011;4324;42.012;24.872;2023-11-21T13:12:57;13.67;;;10.13;;
8572;SDS011;4324;42.012;24.872;2023-11-21T13:15:25;19.00;;;14.33;;
8572;SDS011;4324;42.012;24.872;2023-11-21T13:17:53;13.90;;;9.63;;
8572;SDS011;4324;42.012;24.872;2023-11-21T13:20:21;11.73;;;9.87;;
8572;SDS011;4324;42.012;24.872;2023-11-21T13:22:52;10.63;;;8.17;;
8572;SDS011;4324;42.012;24.872;2023-11-21T13:25:23;13.33;;;8.40;;
8572;SDS011;4324;42.012;24.872;2023-11-21T13:27:52;9.27;;;7.93;;
8572;SDS011;4324;42.012;24.872;2023-11-21T13:30:20;11.17;;;7.70;;
8572;SDS011;4324;42.012;24.872;2023-11-21T13:32:51;8.10;;;6.87;;
8572;SDS011;4324;42.012;24.872;2023-11-21T13:35:22;11.90;;;7.87;;
8572;SDS011;4324;42.012;24.872;2023-11-21T13:38:02;10.87;;;8.93;;
8572;SDS011;4324;42.012;24.872;2023-11-21T13:40:31;11.00;;;7.60;;
8572;SDS011;4324;42.012;24.872;2023-11-21T13:43:05;23.20;;;14.87;;
8572;SDS011;4324;42.012;24.872;2023-11-21T13:45:35;22.40;;;14.10;;
8572;SDS011;4324;42.012;24.872;2023-11-21T13:48:02;9.97;;;7.97;;
8572;SDS011;4324;42.012;24.872;2023-11-21T13:50:32;13.13;;;7.17;;
8572;SDS011;4324;42.012;24.872;2023-11-21T13:53:00;16.47;;;11.80;;
8572;SDS011;4324;42.012;24.872;2023-11-21T13:55:36;15.97;;;10.50;;
8572;SDS011;4324;42.012;24.872;2023-11-21T13:58:05;14.20;;;10.00;;
8572;SDS011;4324;42.012;24.872;2023-11-21T14:00:35;13.43;;;8.73;;
8572;SDS011;4324;42.012;24.872;2023-11-21T14:03:10;12.83;;;8.20;;
8572;SDS011;4324;42.012;24.872;2023-11-21T14:05:44;9.00;;;6.80;;
8572;SDS011;4324;42.012;24.872;2023-11-21T14:08:17;11.13;;;5.53;;
8572;SDS011;4324;42.012;24.872;2023-11-21T14:10:46;11.77;;;7.23;;
8572;SDS011;4324;42.012;24.872;2023-11-21T14:13:16;13.03;;;8.80;;
8572;SDS011;4324;42.012;24.872;2023-11-21T14:15:46;13.43;;;10.07;;
8572;SDS011;4324;42.012;24.872;2023-11-21T14:18:16;14.70;;;9.97;;
8572;SDS011;4324;42.012;24.872;2023-11-21T14:20:51;12.27;;;8.97;;
8572;SDS011;4324;42.012;24.872;2023-11-21T14:23:19;12.17;;;8.47;;
8572;SDS011;4324;42.012;24.872;2023-11-21T14:25:48;10.07;;;7.67;;
8572;SDS011;4324;42.012;24.872;2023-11-21T14:28:17;10.27;;;7.70;;
8572;SDS011;4324;42.012;24.872;2023-11-21T14:30:45;13.90;;;9.03;;
8572;SDS011;4324;42.012;24.872;2023-11-21T14:33:12;12.67;;;9.90;;
8572;SDS011;4324;42.012;24.872;2023-11-21T14:35:41;14.43;;;10.43;;
8572;SDS011;4324;42.012;24.872;2023-11-21T14:38:08;13.23;;;11.47;;
8572;SDS011;4324;42.012;24.872;2023-11-21T14:40:37;60.73;;;35.33;;
8572;SDS011;4324;42.012;24.872;2023-11-21T14:43:04;48.97;;;30.40;;
8572;SDS011;4324;42.012;24.872;2023-11-21T14:45:31;26.33;;;17.43;;
8572;SDS011;4324;42.012;24.872;2023-11-21T14:47:59;18.17;;;13.60;;
8572;SDS011;4324;42.012;24.872;2023-11-21T14:50:32;23.70;;;14.97;;
8572;SDS011;4324;42.012;24.872;2023-11-21T14:53:37;26.43;;;17.90;;
8572;SDS011;4324;42.012;24.872;2023-11-21T14:56:19;30.13;;;18.87;;
8572;SDS011;4324;42.012;24.872;2023-11-21T14:58:52;40.87;;;23.60;;
8572;SDS011;4324;42.012;24.872;2023-11-21T15:01:19;37.83;;;22.93;;